TimeEST,TemperatureF,Dew PointF,Humidity,Sea Level PressureIn,VisibilityMPH,Wind Direction,Wind SpeedMPH,Gust SpeedMPH,PrecipitationIn,Events,Conditions,WindDirDegrees,DateUTC
12:53 AM,37.0,33.1,86,30.22,9.0,Calm,Calm,-,N/A,,Clear,0,2012-11-09 05:53:00
1:53 AM,36.0,32.0,86,30.21,10.0,NE,3.5,-,N/A,,Clear,40,2012-11-09 06:53:00
2:53 AM,35.1,30.9,85,30.22,8.0,Calm,Calm,-,N/A,,Clear,0,2012-11-09 07:53:00
3:53 AM,32.0,30.0,92,30.23,8.0,Calm,Calm,-,N/A,,Clear,0,2012-11-09 08:53:00
4:53 AM,34.0,30.9,89,30.25,7.0,Calm,Calm,-,N/A,,Clear,0,2012-11-09 09:53:00
5:53 AM,33.1,30.0,89,30.26,7.0,Calm,Calm,-,N/A,,Clear,0,2012-11-09 10:53:00
6:53 AM,32.0,28.9,88,30.28,7.0,Calm,Calm,-,N/A,,Clear,0,2012-11-09 11:53:00
7:53 AM,33.1,30.0,89,30.31,6.0,Calm,Calm,-,N/A,,Partly Cloudy,0,2012-11-09 12:53:00
8:48 AM,37.4,33.8,87,30.32,1.5,Calm,Calm,-,N/A,,Mostly Cloudy,0,2012-11-09 13:48:00
8:53 AM,39.0,34.0,82,30.33,0.2,Calm,Calm,-,N/A,Fog,Fog,0,2012-11-09 13:53:00
9:04 AM,39.2,35.6,87,30.32,0.5,Calm,Calm,-,N/A,Fog,Fog,0,2012-11-09 14:04:00
9:19 AM,39.2,35.6,87,30.32,1.2,Calm,Calm,-,N/A,Fog,Fog,0,2012-11-09 14:19:00
9:23 AM,39.2,35.6,87,30.32,2.5,Calm,Calm,-,N/A,,Scattered Clouds,0,2012-11-09 14:23:00
9:29 AM,39.2,35.6,87,30.32,4.0,East,3.5,-,N/A,,Scattered Clouds,90,2012-11-09 14:29:00
9:53 AM,43.0,36.0,76,30.34,7.0,Calm,Calm,-,N/A,,Partly Cloudy,0,2012-11-09 14:53:00
10:53 AM,48.9,37.9,66,30.33,8.0,Calm,Calm,-,N/A,,Clear,0,2012-11-09 15:53:00
11:53 AM,53.1,35.1,50,30.30,10.0,Calm,Calm,-,N/A,,Clear,0,2012-11-09 16:53:00
12:53 PM,57.0,36.0,45,30.26,10.0,Calm,Calm,-,N/A,,Clear,0,2012-11-09 17:53:00
1:53 PM,61.0,35.1,38,30.23,10.0,West,3.5,-,N/A,,Clear,260,2012-11-09 18:53:00
2:53 PM,62.1,36.0,38,30.21,10.0,Variable,3.5,-,N/A,,Partly Cloudy,0,2012-11-09 19:53:00
3:53 PM,60.1,35.1,39,30.21,10.0,West,3.5,-,N/A,,Partly Cloudy,280,2012-11-09 20:53:00
4:53 PM,60.1,35.1,39,30.21,10.0,Calm,Calm,-,N/A,,Partly Cloudy,0,2012-11-09 21:53:00
5:53 PM,53.1,36.0,52,30.22,10.0,Calm,Calm,-,N/A,,Clear,0,2012-11-09 22:53:00
6:53 PM,51.1,37.0,59,30.22,10.0,Calm,Calm,-,N/A,,Clear,0,2012-11-09 23:53:00
7:53 PM,50.0,37.0,61,30.23,10.0,Calm,Calm,-,N/A,,Clear,0,2012-11-10 00:53:00
8:53 PM,46.9,37.0,68,30.23,10.0,Calm,Calm,-,N/A,,Clear,0,2012-11-10 01:53:00
9:53 PM,44.1,37.0,76,30.25,10.0,Calm,Calm,-,N/A,,Clear,0,2012-11-10 02:53:00
10:53 PM,44.1,37.0,76,30.25,10.0,Calm,Calm,-,N/A,,Clear,0,2012-11-10 03:53:00
11:53 PM,42.1,37.0,82,30.25,10.0,Calm,Calm,-,N/A,,Clear,0,2012-11-10 04:53:00